sensor_id;sensor_type;location;lat;lon;timestamp;temperature;humidity
43647;DHT22;56152;49.996;18.980;2022-07-29T00:02:59;16.80;79.50
43647;DHT22;56152;49.996;18.980;2022-07-29T00:08:01;16.70;80.60
43647;DHT22;56152;49.996;18.980;2022-07-29T00:13:26;16.60;80.30
43647;DHT22;56152;49.996;18.980;2022-07-29T00:18:29;16.60;80.60
43647;DHT22;56152;49.996;18.980;2022-07-29T00:29:10;16.50;81.00
43647;DHT22;56152;49.996;18.980;2022-07-29T00:34:13;16.50;80.90
43647;DHT22;56152;49.996;18.980;2022-07-29T00:39:29;16.50;81.00
43647;DHT22;56152;49.996;18.980;2022-07-29T00:44:36;16.40;81.10
43647;DHT22;56152;49.996;18.980;2022-07-29T00:49:40;16.40;81.30
43647;DHT22;56152;49.996;18.980;2022-07-29T01:00:18;16.40;81.60
43647;DHT22;56152;49.996;18.980;2022-07-29T01:05:23;16.30;81.60
43647;DHT22;56152;49.996;18.980;2022-07-29T01:10:31;16.30;81.80
43647;DHT22;56152;49.996;18.980;2022-07-29T01:15:58;16.30;81.80
43647;DHT22;56152;49.996;18.980;2022-07-29T01:21:21;16.20;82.00
43647;DHT22;56152;49.996;18.980;2022-07-29T01:26:37;16.20;82.10
43647;DHT22;56152;49.996;18.980;2022-07-29T01:31:57;16.10;82.20
43647;DHT22;56152;49.996;18.980;2022-07-29T01:37:06;16.10;82.60
43647;DHT22;56152;49.996;18.980;2022-07-29T01:42:26;16.10;82.50
43647;DHT22;56152;49.996;18.980;2022-07-29T01:47:52;16.10;82.50
43647;DHT22;56152;49.996;18.980;2022-07-29T01:53:00;16.10;82.40
43647;DHT22;56152;49.996;18.980;2022-07-29T01:58:05;16.10;83.00
43647;DHT22;56152;49.996;18.980;2022-07-29T02:03:11;16.10;82.30
43647;DHT22;56152;49.996;18.980;2022-07-29T02:08:15;16.10;82.30
43647;DHT22;56152;49.996;18.980;2022-07-29T02:13:35;16.10;82.50
43647;DHT22;56152;49.996;18.980;2022-07-29T02:18:42;16.10;82.50
43647;DHT22;56152;49.996;18.980;2022-07-29T02:23:45;16.10;82.50
43647;DHT22;56152;49.996;18.980;2022-07-29T02:29:02;16.00;82.50
43647;DHT22;56152;49.996;18.980;2022-07-29T02:34:09;16.00;82.40
43647;DHT22;56152;49.996;18.980;2022-07-29T02:39:12;16.00;82.40
43647;DHT22;56152;49.996;18.980;2022-07-29T02:44:50;16.00;82.30
43647;DHT22;56152;49.996;18.980;2022-07-29T02:49:57;15.90;82.40
43647;DHT22;56152;49.996;18.980;2022-07-29T02:55:12;15.90;82.50
43647;DHT22;56152;49.996;18.980;2022-07-29T03:00:18;15.90;82.40
43647;DHT22;56152;49.996;18.980;2022-07-29T03:05:30;15.90;82.30
43647;DHT22;56152;49.996;18.980;2022-07-29T03:10:34;15.90;82.50
43647;DHT22;56152;49.996;18.980;2022-07-29T03:15:48;15.80;82.40
43647;DHT22;56152;49.996;18.980;2022-07-29T03:20:52;15.80;82.40
43647;DHT22;56152;49.996;18.980;2022-07-29T03:31:35;15.80;82.20
43647;DHT22;56152;49.996;18.980;2022-07-29T03:36:51;15.70;82.10
43647;DHT22;56152;49.996;18.980;2022-07-29T03:41:55;15.70;82.10
43647;DHT22;56152;49.996;18.980;2022-07-29T03:47:01;15.70;82.10
43647;DHT22;56152;49.996;18.980;2022-07-29T03:52:07;15.70;82.00
43647;DHT22;56152;49.996;18.980;2022-07-29T03:57:12;15.80;82.00
43647;DHT22;56152;49.996;18.980;2022-07-29T04:02:32;15.70;82.00
43647;DHT22;56152;49.996;18.980;2022-07-29T04:07:50;15.70;82.00
43647;DHT22;56152;49.996;18.980;2022-07-29T04:12:52;15.80;81.80
43647;DHT22;56152;49.996;18.980;2022-07-29T04:17:54;15.90;81.50
43647;DHT22;56152;49.996;18.980;2022-07-29T04:22:58;16.00;81.20
43647;DHT22;56152;49.996;18.980;2022-07-29T04:28:07;16.10;80.90
43647;DHT22;56152;49.996;18.980;2022-07-29T04:33:09;16.30;80.60
43647;DHT22;56152;49.996;18.980;2022-07-29T04:38:12;16.50;79.90
43647;DHT22;56152;49.996;18.980;2022-07-29T04:43:15;16.80;79.30
43647;DHT22;56152;49.996;18.980;2022-07-29T04:48:17;16.90;78.50
43647;DHT22;56152;49.996;18.980;2022-07-29T04:53:20;17.10;78.30
43647;DHT22;56152;49.996;18.980;2022-07-29T04:58:23;17.30;77.70
43647;DHT22;56152;49.996;18.980;2022-07-29T05:03:24;17.50;77.30
43647;DHT22;56152;49.996;18.980;2022-07-29T05:08:28;17.70;76.80
43647;DHT22;56152;49.996;18.980;2022-07-29T05:13:30;18.00;76.20
43647;DHT22;56152;49.996;18.980;2022-07-29T05:18:35;18.20;75.90
43647;DHT22;56152;49.996;18.980;2022-07-29T05:23:42;18.30;75.30
43647;DHT22;56152;49.996;18.980;2022-07-29T05:28:47;18.50;75.10
43647;DHT22;56152;49.996;18.980;2022-07-29T05:33:52;18.60;74.60
43647;DHT22;56152;49.996;18.980;2022-07-29T05:38:55;18.80;74.10
43647;DHT22;56152;49.996;18.980;2022-07-29T05:43:58;18.90;73.50
43647;DHT22;56152;49.996;18.980;2022-07-29T05:49:00;19.20;73.10
43647;DHT22;56152;49.996;18.980;2022-07-29T05:54:04;19.40;72.60
43647;DHT22;56152;49.996;18.980;2022-07-29T05:59:07;19.60;72.50
43647;DHT22;56152;49.996;18.980;2022-07-29T06:04:08;20.00;72.20
43647;DHT22;56152;49.996;18.980;2022-07-29T06:09:12;20.40;70.90
43647;DHT22;56152;49.996;18.980;2022-07-29T06:14:16;20.70;70.10
43647;DHT22;56152;49.996;18.980;2022-07-29T06:19:23;21.00;69.60
43647;DHT22;56152;49.996;18.980;2022-07-29T06:24:31;21.30;69.00
43647;DHT22;56152;49.996;18.980;2022-07-29T06:29:33;21.30;68.50
43647;DHT22;56152;49.996;18.980;2022-07-29T06:34:39;21.10;69.50
43647;DHT22;56152;49.996;18.980;2022-07-29T06:39:49;21.10;69.40
43647;DHT22;56152;49.996;18.980;2022-07-29T06:45:12;21.10;69.50
43647;DHT22;56152;49.996;18.980;2022-07-29T06:50:14;21.60;68.80
43647;DHT22;56152;49.996;18.980;2022-07-29T06:55:22;22.20;67.30
43647;DHT22;56152;49.996;18.980;2022-07-29T07:00:26;22.30;66.70
43647;DHT22;56152;49.996;18.980;2022-07-29T07:05:31;22.00;67.50
43647;DHT22;56152;49.996;18.980;2022-07-29T07:10:38;21.80;67.90
43647;DHT22;56152;49.996;18.980;2022-07-29T07:15:40;21.50;68.90
43647;DHT22;56152;49.996;18.980;2022-07-29T07:20:43;21.40;69.50
43647;DHT22;56152;49.996;18.980;2022-07-29T07:25:47;21.50;69.10
43647;DHT22;56152;49.996;18.980;2022-07-29T07:30:50;21.80;68.80
43647;DHT22;56152;49.996;18.980;2022-07-29T07:35:52;22.20;68.10
43647;DHT22;56152;49.996;18.980;2022-07-29T07:40:55;22.90;67.20
43647;DHT22;56152;49.996;18.980;2022-07-29T07:46:00;23.30;65.80
43647;DHT22;56152;49.996;18.980;2022-07-29T07:51:02;23.40;65.30
43647;DHT22;56152;49.996;18.980;2022-07-29T07:56:06;23.60;64.70
43647;DHT22;56152;49.996;18.980;2022-07-29T08:01:09;23.60;64.50
43647;DHT22;56152;49.996;18.980;2022-07-29T08:06:11;23.50;65.20
43647;DHT22;56152;49.996;18.980;2022-07-29T08:11:15;23.30;65.50
43647;DHT22;56152;49.996;18.980;2022-07-29T08:16:18;22.90;66.30
43647;DHT22;56152;49.996;18.980;2022-07-29T08:21:22;23.00;66.60
43647;DHT22;56152;49.996;18.980;2022-07-29T08:26:26;23.10;66.40
43647;DHT22;56152;49.996;18.980;2022-07-29T08:31:31;23.80;65.20
43647;DHT22;56152;49.996;18.980;2022-07-29T08:36:33;24.40;64.20
43647;DHT22;56152;49.996;18.980;2022-07-29T08:41:36;24.90;63.20
43647;DHT22;56152;49.996;18.980;2022-07-29T08:46:38;25.50;62.40
43647;DHT22;56152;49.996;18.980;2022-07-29T08:51:40;25.90;61.10
43647;DHT22;56152;49.996;18.980;2022-07-29T08:56:44;26.10;60.90
43647;DHT22;56152;49.996;18.980;2022-07-29T09:01:52;26.20;60.90
43647;DHT22;56152;49.996;18.980;2022-07-29T09:06:57;26.40;60.20
43647;DHT22;56152;49.996;18.980;2022-07-29T09:12:03;26.40;60.20
43647;DHT22;56152;49.996;18.980;2022-07-29T09:17:07;26.40;60.80
43647;DHT22;56152;49.996;18.980;2022-07-29T09:22:09;26.30;59.90
43647;DHT22;56152;49.996;18.980;2022-07-29T09:27:22;26.10;60.50
43647;DHT22;56152;49.996;18.980;2022-07-29T09:32:26;26.40;60.00
43647;DHT22;56152;49.996;18.980;2022-07-29T09:37:29;26.60;59.90
43647;DHT22;56152;49.996;18.980;2022-07-29T09:42:32;26.80;59.50
43647;DHT22;56152;49.996;18.980;2022-07-29T09:47:43;27.10;58.80
43647;DHT22;56152;49.996;18.980;2022-07-29T09:52:49;27.30;58.60
43647;DHT22;56152;49.996;18.980;2022-07-29T09:57:53;27.30;58.40
43647;DHT22;56152;49.996;18.980;2022-07-29T10:03:00;27.40;58.10
43647;DHT22;56152;49.996;18.980;2022-07-29T10:08:03;27.30;57.90
43647;DHT22;56152;49.996;18.980;2022-07-29T10:13:10;27.40;58.50
43647;DHT22;56152;49.996;18.980;2022-07-29T10:18:13;27.40;58.30
43647;DHT22;56152;49.996;18.980;2022-07-29T10:23:20;27.40;58.10
43647;DHT22;56152;49.996;18.980;2022-07-29T10:28:24;27.50;58.20
43647;DHT22;56152;49.996;18.980;2022-07-29T10:33:41;27.40;58.30
43647;DHT22;56152;49.996;18.980;2022-07-29T10:38:55;27.50;58.20
43647;DHT22;56152;49.996;18.980;2022-07-29T10:44:16;28.10;57.90
43647;DHT22;56152;49.996;18.980;2022-07-29T10:49:21;28.40;57.70
43647;DHT22;56152;49.996;18.980;2022-07-29T10:54:44;28.60;56.80
43647;DHT22;56152;49.996;18.980;2022-07-29T10:59:50;28.50;56.80
43647;DHT22;56152;49.996;18.980;2022-07-29T11:04:59;28.40;57.10
43647;DHT22;56152;49.996;18.980;2022-07-29T11:10:20;27.90;57.00
43647;DHT22;56152;49.996;18.980;2022-07-29T11:15:24;27.80;57.70
43647;DHT22;56152;49.996;18.980;2022-07-29T11:20:40;28.00;57.60
43647;DHT22;56152;49.996;18.980;2022-07-29T11:25:42;28.00;57.30
43647;DHT22;56152;49.996;18.980;2022-07-29T11:30:51;27.90;57.70
43647;DHT22;56152;49.996;18.980;2022-07-29T11:36:10;28.20;58.10
43647;DHT22;56152;49.996;18.980;2022-07-29T11:41:22;28.20;56.80
43647;DHT22;56152;49.996;18.980;2022-07-29T11:46:51;28.00;57.20
43647;DHT22;56152;49.996;18.980;2022-07-29T11:51:54;27.70;57.30
43647;DHT22;56152;49.996;18.980;2022-07-29T11:56:57;27.60;58.00
43647;DHT22;56152;49.996;18.980;2022-07-29T12:02:04;27.50;58.10
43647;DHT22;56152;49.996;18.980;2022-07-29T12:07:06;27.40;58.10
43647;DHT22;56152;49.996;18.980;2022-07-29T12:12:20;27.70;57.60
43647;DHT22;56152;49.996;18.980;2022-07-29T12:17:39;27.80;57.10
43647;DHT22;56152;49.996;18.980;2022-07-29T12:22:42;27.90;57.00
43647;DHT22;56152;49.996;18.980;2022-07-29T12:27:46;28.00;56.40
43647;DHT22;56152;49.996;18.980;2022-07-29T12:32:49;28.00;56.70
43647;DHT22;56152;49.996;18.980;2022-07-29T12:37:52;27.90;56.60
43647;DHT22;56152;49.996;18.980;2022-07-29T12:43:12;28.10;56.50
43647;DHT22;56152;49.996;18.980;2022-07-29T12:48:32;28.00;56.20
43647;DHT22;56152;49.996;18.980;2022-07-29T12:53:36;27.90;55.60
43647;DHT22;56152;49.996;18.980;2022-07-29T12:58:40;27.70;56.70
43647;DHT22;56152;49.996;18.980;2022-07-29T13:03:46;27.80;56.50
43647;DHT22;56152;49.996;18.980;2022-07-29T13:08:59;27.90;56.60
43647;DHT22;56152;49.996;18.980;2022-07-29T13:14:02;28.10;56.00
43647;DHT22;56152;49.996;18.980;2022-07-29T13:19:08;28.20;55.70
43647;DHT22;56152;49.996;18.980;2022-07-29T13:24:10;28.30;55.70
43647;DHT22;56152;49.996;18.980;2022-07-29T13:29:16;28.30;55.20
43647;DHT22;56152;49.996;18.980;2022-07-29T13:34:19;28.20;55.00
43647;DHT22;56152;49.996;18.980;2022-07-29T13:39:25;28.10;54.60
43647;DHT22;56152;49.996;18.980;2022-07-29T13:44:27;27.80;54.70
43647;DHT22;56152;49.996;18.980;2022-07-29T13:49:30;27.80;55.10
43647;DHT22;56152;49.996;18.980;2022-07-29T13:54:32;27.80;54.70
43647;DHT22;56152;49.996;18.980;2022-07-29T13:59:38;27.80;54.40
43647;DHT22;56152;49.996;18.980;2022-07-29T14:04:45;27.70;54.10
43647;DHT22;56152;49.996;18.980;2022-07-29T14:09:47;27.60;54.20
43647;DHT22;56152;49.996;18.980;2022-07-29T14:14:49;27.70;54.90
43647;DHT22;56152;49.996;18.980;2022-07-29T14:19:53;27.80;54.10
43647;DHT22;56152;49.996;18.980;2022-07-29T14:24:55;27.80;54.00
43647;DHT22;56152;49.996;18.980;2022-07-29T14:29:58;27.80;54.00
43647;DHT22;56152;49.996;18.980;2022-07-29T14:35:01;27.90;53.80
43647;DHT22;56152;49.996;18.980;2022-07-29T14:40:05;27.60;53.60
43647;DHT22;56152;49.996;18.980;2022-07-29T14:45:08;27.40;54.30
43647;DHT22;56152;49.996;18.980;2022-07-29T14:50:11;27.20;54.60
43647;DHT22;56152;49.996;18.980;2022-07-29T14:55:14;27.10;55.00
43647;DHT22;56152;49.996;18.980;2022-07-29T15:00:17;27.10;55.00
43647;DHT22;56152;49.996;18.980;2022-07-29T15:05:21;27.00;55.20
43647;DHT22;56152;49.996;18.980;2022-07-29T15:10:24;26.80;55.30
43647;DHT22;56152;49.996;18.980;2022-07-29T15:15:26;26.60;55.50
43647;DHT22;56152;49.996;18.980;2022-07-29T15:20:35;26.60;55.80
43647;DHT22;56152;49.996;18.980;2022-07-29T20:09:04;20.20;87.00
43647;DHT22;56152;49.996;18.980;2022-07-29T20:14:06;20.20;87.40
43647;DHT22;56152;49.996;18.980;2022-07-29T20:19:08;20.10;87.50
43647;DHT22;56152;49.996;18.980;2022-07-29T20:24:12;20.10;87.60
43647;DHT22;56152;49.996;18.980;2022-07-29T20:29:14;20.10;87.90
43647;DHT22;56152;49.996;18.980;2022-07-29T20:34:16;20.00;88.30
43647;DHT22;56152;49.996;18.980;2022-07-29T20:39:20;20.00;88.50
43647;DHT22;56152;49.996;18.980;2022-07-29T20:44:22;19.90;88.80
43647;DHT22;56152;49.996;18.980;2022-07-29T20:49:24;19.80;89.40
43647;DHT22;56152;49.996;18.980;2022-07-29T20:54:29;19.80;89.90
43647;DHT22;56152;49.996;18.980;2022-07-29T20:59:31;19.70;90.10
43647;DHT22;56152;49.996;18.980;2022-07-29T21:04:33;19.60;90.30
43647;DHT22;56152;49.996;18.980;2022-07-29T21:09:38;19.60;90.40
43647;DHT22;56152;49.996;18.980;2022-07-29T21:14:41;19.60;90.60
43647;DHT22;56152;49.996;18.980;2022-07-29T21:19:49;19.50;90.70
43647;DHT22;56152;49.996;18.980;2022-07-29T21:24:54;19.40;90.90
43647;DHT22;56152;49.996;18.980;2022-07-29T21:30:00;19.50;91.00
43647;DHT22;56152;49.996;18.980;2022-07-29T21:35:02;19.40;91.10
43647;DHT22;56152;49.996;18.980;2022-07-29T21:40:08;19.40;91.00
43647;DHT22;56152;49.996;18.980;2022-07-29T21:45:10;19.40;91.00
43647;DHT22;56152;49.996;18.980;2022-07-29T21:50:12;19.30;91.00
43647;DHT22;56152;49.996;18.980;2022-07-29T21:55:16;19.30;91.00
43647;DHT22;56152;49.996;18.980;2022-07-29T22:00:20;19.30;91.00
43647;DHT22;56152;49.996;18.980;2022-07-29T22:05:26;19.30;91.20
43647;DHT22;56152;49.996;18.980;2022-07-29T22:10:30;19.20;91.30
43647;DHT22;56152;49.996;18.980;2022-07-29T22:15:33;19.10;91.40
43647;DHT22;56152;49.996;18.980;2022-07-29T22:20:34;19.10;91.40
43647;DHT22;56152;49.996;18.980;2022-07-29T22:25:38;19.00;91.40
43647;DHT22;56152;49.996;18.980;2022-07-29T22:30:40;19.00;91.50
43647;DHT22;56152;49.996;18.980;2022-07-29T22:35:42;19.00;91.90
43647;DHT22;56152;49.996;18.980;2022-07-29T22:40:47;18.90;91.60
43647;DHT22;56152;49.996;18.980;2022-07-29T22:45:50;18.90;91.70
43647;DHT22;56152;49.996;18.980;2022-07-29T22:50:54;18.90;91.70
43647;DHT22;56152;49.996;18.980;2022-07-29T22:56:00;18.80;91.70
43647;DHT22;56152;49.996;18.980;2022-07-29T23:01:02;18.80;91.80
43647;DHT22;56152;49.996;18.980;2022-07-29T23:06:04;18.70;91.80
43647;DHT22;56152;49.996;18.980;2022-07-29T23:11:08;18.70;91.90
43647;DHT22;56152;49.996;18.980;2022-07-29T23:16:09;18.70;92.00
43647;DHT22;56152;49.996;18.980;2022-07-29T23:21:14;18.60;91.90
43647;DHT22;56152;49.996;18.980;2022-07-29T23:26:18;18.60;91.90
43647;DHT22;56152;49.996;18.980;2022-07-29T23:31:20;18.50;92.00
43647;DHT22;56152;49.996;18.980;2022-07-29T23:36:24;18.50;92.10
43647;DHT22;56152;49.996;18.980;2022-07-29T23:41:31;18.50;92.10
43647;DHT22;56152;49.996;18.980;2022-07-29T23:46:34;18.40;92.10
43647;DHT22;56152;49.996;18.980;2022-07-29T23:51:36;18.40;92.10
43647;DHT22;56152;49.996;18.980;2022-07-29T23:56:39;18.40;92.10
